Main page
METAR-TAF:

METAR-TAF

Airports :

Perpignan–Rivesaltes Airport

Perpignan, France

latitude: 42-44N, longitude: 002-52E, elevation: 43 m

Current weather observation

The report was made 18 minutes ago, at 19:00 UTC
Wind 4 kt from the East
Temperature 14°C
Humidity 82%
Pressure 1021 hPa
Visibility 10 km or more

METAR: LFMP 181900Z AUTO 08004KT 9999 NCD 14/11 Q1021 NOSIG

Time: 21:18 (19:18 UTC)

Forecast

The report was made 5 hours and 18 minutes ago, at 14:00 UTC
Forecast valid from 18 at 15 UTC to 19 at 15 UTC
Wind 10 kt from the East
Visibility 10 km or more
no clouds below 1500 m and no cumulonimbus
Temporary
from 18 at 20 UTC to 19 at 09 UTC
Wind 5 kt from variable directions
Temporary
from 19 at 00 UTC to 19 at 07 UTC
Visibility: 4000 m
Broken clouds at a height of 500 ft
mist

TAF: LFMP 181400Z 1815/1915 09010KT CAVOK TEMPO 1820/1909 VRB05KT TEMPO 1900/1907 4000 BR BKN005

Weather observations and forecasts of more than 4000 airports (METAR and TAF reports).

The available stations are represented by yellow and red dots on the map.

Hover mouse over dot to see the name of the station.

Then click to see weather observations and forecasts.

To change the map : click on the green buttons with a black cross to zoom in, on the green button with a dash to zoom out, or on the green arrows for adjacent maps.


METAR-TAF: